createdAt,value
2018-01-24T00:00:42.789Z,100862.98
2018-01-24T00:03:11.471Z,100866.82
2018-01-24T00:05:40.380Z,100858.75
2018-01-24T00:08:09.080Z,100854.80
2018-01-24T00:10:37.590Z,100865.28
2018-01-24T00:13:06.110Z,100862.25
2018-01-24T00:15:34.566Z,100862.05
2018-01-24T00:18:03.067Z,100868.52
2018-01-24T00:20:31.547Z,100879.02
2018-01-24T00:23:00.028Z,100869.97
2018-01-24T00:25:28.620Z,100877.05
2018-01-24T00:27:58.075Z,100874.86
2018-01-24T00:30:26.544Z,100862.24
2018-01-24T00:32:54.982Z,100860.67
2018-01-24T00:35:23.672Z,100855.31
2018-01-24T00:37:52.099Z,100853.08
2018-01-24T00:40:20.580Z,100852.23
2018-01-24T00:42:49.298Z,100850.81
2018-01-24T00:45:17.790Z,100853.75
2018-01-24T00:47:46.256Z,100853.17
2018-01-24T00:50:15.117Z,100865.33
2018-01-24T00:52:43.647Z,100863.09
2018-01-24T00:55:12.316Z,100860.51
2018-01-24T00:57:41.219Z,100858.48
2018-01-24T01:00:10.069Z,100868.79
2018-01-24T01:02:38.544Z,100853.98
2018-01-24T01:05:07.140Z,100851.91
2018-01-24T01:07:35.601Z,100851.70
2018-01-24T01:10:04.060Z,100852.94
2018-01-24T01:12:32.594Z,100855.55
2018-01-24T01:15:01.080Z,100862.92
2018-01-24T01:17:29.713Z,100860.89
2018-01-24T01:19:58.211Z,100857.87
2018-01-24T01:22:26.622Z,100851.42
2018-01-24T01:24:55.057Z,100844.91
2018-01-24T01:27:24.552Z,100852.75
2018-01-24T01:29:52.984Z,100861.13
2018-01-24T01:32:21.433Z,100851.52
2018-01-24T01:34:49.996Z,100867.09
2018-01-24T01:37:18.433Z,100871.73
2018-01-24T01:39:46.985Z,100870.45
2018-01-24T01:42:15.633Z,100868.64
2018-01-24T01:44:44.201Z,100878.20
2018-01-24T01:47:12.830Z,100876.71
2018-01-24T01:49:41.496Z,100865.55
2018-01-24T01:52:10.057Z,100857.98
2018-01-24T01:54:38.518Z,100856.92
2018-01-24T01:57:07.128Z,100862.78
2018-01-24T01:59:36.008Z,100875.70
2018-01-24T02:02:04.510Z,100871.52
2018-01-24T02:04:32.974Z,100867.57
2018-01-24T02:07:01.487Z,100854.98
2018-01-24T02:09:29.912Z,100867.20
2018-01-24T02:11:58.396Z,100856.48
2018-01-24T02:14:27.078Z,100870.30
2018-01-24T02:16:55.511Z,100861.13
2018-01-24T02:19:23.965Z,100862.98
2018-01-24T02:21:52.832Z,100848.38
2018-01-24T02:24:21.334Z,100853.00
2018-01-24T02:26:49.903Z,100837.37
2018-01-24T02:29:18.387Z,100865.80
2018-01-24T02:31:46.970Z,100874.28
2018-01-24T02:34:15.751Z,100865.13
2018-01-24T02:36:44.354Z,100865.48
2018-01-24T02:39:15.885Z,100869.06
2018-01-24T02:41:44.437Z,100878.13
2018-01-24T02:44:13.013Z,100874.83
2018-01-24T02:46:41.510Z,100873.34
2018-01-24T02:49:10.038Z,100881.55
2018-01-24T02:51:38.519Z,100875.03
2018-01-24T02:54:07.839Z,100882.56
2018-01-24T02:56:36.318Z,100888.80
2018-01-24T02:59:04.780Z,100891.47
2018-01-24T03:01:33.311Z,100889.60
2018-01-24T03:04:01.788Z,100882.30
2018-01-24T03:06:30.234Z,100895.51
2018-01-24T03:08:58.680Z,100900.74
2018-01-24T03:11:27.375Z,100907.84
2018-01-24T03:13:55.821Z,100907.41
2018-01-24T03:16:24.370Z,100913.55
2018-01-24T03:18:52.850Z,100902.34
2018-01-24T03:21:21.348Z,100909.39
2018-01-24T03:23:49.825Z,100910.41
2018-01-24T03:26:18.712Z,100909.87
2018-01-24T03:28:47.197Z,100920.54
2018-01-24T03:31:15.677Z,100918.94
2018-01-24T03:33:44.262Z,100919.84
2018-01-24T03:36:12.840Z,100910.94
2018-01-24T03:38:41.785Z,100913.07
2018-01-24T03:41:10.326Z,100910.41
2018-01-24T03:43:38.883Z,100920.75
2018-01-24T03:46:07.433Z,100922.94
2018-01-24T03:48:35.913Z,100916.48
2018-01-24T03:51:04.348Z,100929.67
2018-01-24T03:53:32.814Z,100942.95
2018-01-24T03:56:01.500Z,100937.73
2018-01-24T03:58:29.973Z,100941.83
2018-01-24T04:00:58.448Z,100945.46
2018-01-24T04:03:27.313Z,100948.13
2018-01-24T04:05:55.824Z,100949.14
2018-01-24T04:08:24.322Z,100944.48
2018-01-24T04:10:53.304Z,100947.76
2018-01-24T04:13:21.782Z,100940.23
2018-01-24T04:15:50.271Z,100944.72
2018-01-24T04:18:19.091Z,100955.06
2018-01-24T04:20:47.634Z,100950.16
2018-01-24T04:23:16.141Z,100960.39
2018-01-24T04:25:44.942Z,100962.48
2018-01-24T04:28:13.493Z,100952.03
2018-01-24T04:30:42.098Z,100958.80
2018-01-24T04:33:10.791Z,100960.34
2018-01-24T04:35:39.270Z,100950.30
2018-01-24T04:38:07.794Z,100957.08
2018-01-24T04:40:36.577Z,100946.46
2018-01-24T04:43:05.012Z,100953.83
2018-01-24T04:45:33.536Z,100949.67
2018-01-24T04:48:02.381Z,100939.44
2018-01-24T04:50:31.490Z,100940.34
2018-01-24T04:53:00.004Z,100952.92
2018-01-24T04:55:28.479Z,100929.40
2018-01-24T04:57:58.061Z,100942.73
2018-01-24T05:00:26.598Z,100935.74
2018-01-24T05:02:55.157Z,100937.33
2018-01-24T05:05:23.665Z,100945.38
2018-01-24T05:07:52.143Z,100941.48
2018-01-24T05:10:20.761Z,100942.49
2018-01-24T05:12:49.388Z,100930.50
2018-01-24T05:15:17.924Z,100928.27
2018-01-24T05:17:46.613Z,100932.05
2018-01-24T05:20:15.258Z,100928.37
2018-01-24T05:22:44.768Z,100922.52
2018-01-24T05:25:13.657Z,100925.11
2018-01-24T05:27:42.170Z,100922.14
2018-01-24T05:30:11.063Z,100924.26
2018-01-24T05:32:39.804Z,100924.91
2018-01-24T05:35:08.286Z,100935.31
2018-01-24T05:37:37.025Z,100931.69
2018-01-24T05:40:05.518Z,100928.22
2018-01-24T05:42:34.098Z,100923.52
2018-01-24T05:45:02.589Z,100921.50
2018-01-24T05:47:31.095Z,100909.30
2018-01-24T05:49:59.515Z,100911.80
2018-01-24T05:52:27.969Z,100912.27
2018-01-24T05:54:56.450Z,100916.22
2018-01-24T05:57:24.964Z,100901.98
2018-01-24T05:59:53.609Z,100906.12
2018-01-24T06:02:22.105Z,100908.80
2018-01-24T06:04:50.584Z,100896.98
2018-01-24T06:07:19.460Z,100901.63
2018-01-24T06:09:48.374Z,100902.14
2018-01-24T06:12:16.873Z,100897.23
2018-01-24T06:14:45.413Z,100900.45
2018-01-24T06:17:14.144Z,100899.36
2018-01-24T06:19:42.698Z,100899.25
2018-01-24T06:22:11.180Z,100901.34
2018-01-24T06:24:40.607Z,100900.70
2018-01-24T06:27:09.127Z,100902.31
2018-01-24T06:29:37.642Z,100900.05
2018-01-24T06:32:06.317Z,100889.81
2018-01-24T06:34:34.788Z,100881.00
2018-01-24T06:37:03.256Z,100888.19
2018-01-24T06:39:31.823Z,100883.70
2018-01-24T06:42:00.382Z,100884.50
2018-01-24T06:44:28.922Z,100885.70
2018-01-24T06:46:57.439Z,100881.59
2018-01-24T06:49:25.883Z,100886.80
2018-01-24T06:51:57.565Z,100895.78
2018-01-24T06:54:26.502Z,100897.60
2018-01-24T06:56:55.113Z,100900.84
2018-01-24T06:59:24.701Z,100895.02
2018-01-24T07:01:59.265Z,100894.48
2018-01-24T07:04:27.777Z,100893.05
2018-01-24T07:06:56.282Z,100894.02
2018-01-24T07:09:24.783Z,100901.55
2018-01-24T07:11:53.270Z,100895.52
2018-01-24T07:14:33.806Z,100896.00
2018-01-24T07:17:02.271Z,100896.61
2018-01-24T07:19:30.870Z,100904.92
2018-01-24T07:21:59.360Z,100913.25
2018-01-24T07:24:28.193Z,100901.94
2018-01-24T07:26:56.630Z,100899.00
2018-01-24T07:29:25.300Z,100898.01
2018-01-24T07:31:53.803Z,100908.31
2018-01-24T07:34:22.302Z,100889.70
2018-01-24T07:36:51.015Z,100882.45
2018-01-24T07:39:19.495Z,100883.14
2018-01-24T07:41:47.988Z,100873.75
2018-01-24T07:44:16.513Z,100880.48
2018-01-24T07:46:45.278Z,100880.30
2018-01-24T07:49:14.271Z,100875.31
2018-01-24T07:51:43.060Z,100875.83
2018-01-24T07:54:11.626Z,100876.84
2018-01-24T07:56:40.192Z,100877.48
2018-01-24T07:59:09.672Z,100872.47
2018-01-24T08:01:38.232Z,100873.87
2018-01-24T08:04:06.709Z,100865.44
2018-01-24T08:06:35.453Z,100867.39
2018-01-24T08:09:04.001Z,100862.42
2018-01-24T08:11:32.940Z,100869.20
2018-01-24T08:14:01.482Z,100863.20
2018-01-24T08:16:29.906Z,100864.91
2018-01-24T08:18:58.955Z,100871.05
2018-01-24T08:21:27.428Z,100857.56
2018-01-24T08:23:55.863Z,100857.89
2018-01-24T08:26:24.364Z,100859.65
2018-01-24T08:28:52.924Z,100856.17
2018-01-24T08:31:21.380Z,100856.50
2018-01-24T08:33:49.868Z,100853.02
2018-01-24T08:36:18.874Z,100859.72
2018-01-24T08:38:47.458Z,100865.97
2018-01-24T08:41:16.043Z,100865.13
2018-01-24T08:43:44.630Z,100857.50
2018-01-24T08:46:13.573Z,100852.52
2018-01-24T08:48:42.532Z,100855.25
2018-01-24T08:51:11.739Z,100855.14
2018-01-24T08:53:40.207Z,100839.23
2018-01-24T08:56:09.480Z,100842.92
2018-01-24T08:58:37.998Z,100850.28
2018-01-24T09:01:06.567Z,100837.13
2018-01-24T09:03:35.006Z,100832.16
2018-01-24T09:06:03.467Z,100834.81
2018-01-24T09:08:31.922Z,100834.11
2018-01-24T09:11:00.363Z,100830.50
2018-01-24T09:13:29.057Z,100822.46
2018-01-24T09:15:57.634Z,100827.69
2018-01-24T09:18:26.117Z,100828.85
2018-01-24T09:20:54.594Z,100818.65
2018-01-24T09:23:23.021Z,100818.22
2018-01-24T09:25:51.557Z,100821.44
2018-01-24T09:28:20.158Z,100815.39
2018-01-24T09:30:48.644Z,100824.03
2018-01-24T09:33:17.202Z,100819.23
2018-01-24T09:35:45.992Z,100816.36
2018-01-24T09:38:14.817Z,100809.16
2018-01-24T09:40:43.398Z,100812.21
2018-01-24T09:43:12.277Z,100802.86
2018-01-24T09:45:40.963Z,100795.09
2018-01-24T09:48:09.463Z,100792.39
2018-01-24T09:50:38.408Z,100786.08
2018-01-24T09:53:06.834Z,100793.21
2018-01-24T09:55:35.339Z,100782.47
2018-01-24T09:58:03.847Z,100787.73
2018-01-24T10:00:32.277Z,100781.70
2018-01-24T10:03:00.707Z,100786.14
2018-01-24T10:05:29.265Z,100772.61
2018-01-24T10:07:57.706Z,100774.11
2018-01-24T10:10:26.174Z,100759.67
2018-01-24T10:12:54.850Z,100759.19
2018-01-24T10:15:23.630Z,100748.18
2018-01-24T10:17:52.179Z,100752.98
2018-01-24T10:20:21.226Z,100738.11
2018-01-24T10:22:49.815Z,100742.91
2018-01-24T10:25:18.909Z,100735.43
2018-01-24T10:27:47.832Z,100735.63
2018-01-24T10:30:16.778Z,100741.53
2018-01-24T10:32:45.754Z,100723.77
2018-01-24T10:35:14.458Z,100729.00
2018-01-24T10:37:43.071Z,100722.08
2018-01-24T10:40:12.256Z,100719.41
2018-01-24T10:42:40.935Z,100726.43
2018-01-24T10:45:09.745Z,100709.12
2018-01-24T10:47:38.366Z,100704.12
2018-01-24T10:50:06.861Z,100702.73
2018-01-24T10:52:35.289Z,100703.05
2018-01-24T10:55:03.722Z,100696.59
2018-01-24T10:57:32.354Z,100684.11
2018-01-24T11:00:00.801Z,100681.77
2018-01-24T11:02:29.345Z,100671.25
2018-01-24T11:04:57.859Z,100668.41
2018-01-24T11:07:26.485Z,100666.52
2018-01-24T11:09:54.926Z,100668.68
2018-01-24T11:12:23.407Z,100658.40
2018-01-24T11:14:51.962Z,100657.97
2018-01-24T11:17:20.447Z,100649.89
2018-01-24T11:19:49.077Z,100650.02
2018-01-24T11:22:18.140Z,100644.71
2018-01-24T11:24:46.684Z,100641.23
2018-01-24T11:27:15.583Z,100636.87
2018-01-24T11:29:44.156Z,100624.87
2018-01-24T11:32:12.992Z,100624.52
2018-01-24T11:34:42.091Z,100624.80
2018-01-24T11:37:10.878Z,100622.63
2018-01-24T11:39:39.357Z,100606.86
2018-01-24T11:42:07.836Z,100607.52
2018-01-24T11:44:36.370Z,100609.97
2018-01-24T11:47:04.891Z,100607.95
2018-01-24T11:49:33.386Z,100600.17
2018-01-24T11:52:01.818Z,100602.59
2018-01-24T11:54:30.421Z,100587.44
2018-01-24T11:56:58.901Z,100584.38
2018-01-24T11:59:27.306Z,100584.38
2018-01-24T12:01:55.810Z,100581.56
2018-01-24T12:04:25.367Z,100579.28
2018-01-24T12:06:53.798Z,100569.94
2018-01-24T12:09:22.652Z,100550.30
2018-01-24T12:11:52.382Z,100555.47
2018-01-24T12:14:20.965Z,100547.43
2018-01-24T12:16:49.540Z,100537.14
2018-01-24T12:19:18.383Z,100520.09
2018-01-24T12:21:46.960Z,100512.94
2018-01-24T12:24:15.648Z,100521.59
2018-01-24T12:26:44.900Z,100523.52
2018-01-24T12:29:13.481Z,100499.92
2018-01-24T12:31:42.004Z,100508.84
2018-01-24T12:34:10.570Z,100492.50
2018-01-24T12:36:39.437Z,100491.84
2018-01-24T12:39:07.835Z,100490.67
2018-01-24T12:41:36.397Z,100474.81
2018-01-24T12:44:04.855Z,100489.62
2018-01-24T12:46:33.304Z,100486.48
2018-01-24T12:49:01.998Z,100475.28
2018-01-24T12:51:30.401Z,100479.52
2018-01-24T12:53:58.904Z,100468.38
2018-01-24T12:56:27.360Z,100478.38
2018-01-24T12:58:55.802Z,100471.13
2018-01-24T13:01:24.279Z,100465.20
2018-01-24T13:03:53.168Z,100459.09
2018-01-24T13:06:21.665Z,100453.95
2018-01-24T13:08:50.918Z,100443.57
2018-01-24T13:11:19.707Z,100441.18
2018-01-24T13:13:48.212Z,100434.73
2018-01-24T13:16:17.115Z,100441.52
2018-01-24T13:18:45.896Z,100430.95
2018-01-24T13:21:14.833Z,100434.63
2018-01-24T13:23:43.830Z,100422.56
2018-01-24T13:26:12.542Z,100417.27
2018-01-24T13:28:41.357Z,100415.48
2018-01-24T13:31:10.164Z,100412.31
2018-01-24T13:33:38.644Z,100409.09
2018-01-24T13:36:07.121Z,100402.93
2018-01-24T13:38:35.649Z,100408.78
2018-01-24T13:41:04.420Z,100382.48
2018-01-24T13:43:32.903Z,100394.61
2018-01-24T13:46:01.320Z,100390.24
2018-01-24T13:48:30.627Z,100392.36
2018-01-24T13:50:59.184Z,100392.26
2018-01-24T13:53:27.686Z,100390.36
2018-01-24T13:55:56.172Z,100385.59
2018-01-24T13:58:24.609Z,100377.62
2018-01-24T14:00:53.053Z,100370.83
2018-01-24T14:03:21.910Z,100378.73
2018-01-24T14:05:50.504Z,100368.98
2018-01-24T14:08:19.546Z,100365.24
2018-01-24T14:10:48.482Z,100368.17
2018-01-24T14:13:17.136Z,100353.16
2018-01-24T14:15:45.691Z,100348.06
2018-01-24T14:18:14.668Z,100346.83
2018-01-24T14:20:44.235Z,100353.70
2018-01-24T14:23:12.898Z,100344.04
2018-01-24T14:25:41.423Z,100337.22
2018-01-24T14:28:09.928Z,100342.28
2018-01-24T14:30:38.427Z,100350.78
2018-01-24T14:33:07.166Z,100342.45
2018-01-24T14:35:35.607Z,100338.50
2018-01-24T14:38:04.090Z,100334.88
2018-01-24T14:40:32.541Z,100337.98
2018-01-24T14:43:01.056Z,100332.98
2018-01-24T14:45:29.501Z,100323.02
2018-01-24T14:47:58.041Z,100324.87
2018-01-24T14:50:26.457Z,100318.59
2018-01-24T14:52:54.905Z,100332.48
2018-01-24T14:55:23.627Z,100308.36
2018-01-24T14:57:52.276Z,100316.89
2018-01-24T15:00:20.809Z,100318.52
2018-01-24T15:02:49.435Z,100301.19
2018-01-24T15:05:17.929Z,100313.01
2018-01-24T15:07:47.969Z,100301.23
2018-01-24T15:10:17.907Z,100297.98
2018-01-24T15:12:46.691Z,100281.34
2018-01-24T15:15:15.188Z,100286.55
2018-01-24T15:17:44.642Z,100286.20
2018-01-24T15:20:13.495Z,100287.05
2018-01-24T15:22:42.168Z,100286.77
2018-01-24T15:25:11.775Z,100278.09
2018-01-24T15:27:40.704Z,100276.19
2018-01-24T15:30:09.209Z,100267.16
2018-01-24T15:32:37.662Z,100273.05
2018-01-24T15:35:06.094Z,100267.08
2018-01-24T15:37:34.555Z,100275.83
2018-01-24T15:40:03.847Z,100262.92
2018-01-24T15:42:32.285Z,100262.36
2018-01-24T15:45:00.738Z,100258.41
2018-01-24T15:47:29.466Z,100244.83
2018-01-24T15:49:57.898Z,100230.08
2018-01-24T15:52:26.306Z,100241.05
2018-01-24T15:54:54.944Z,100240.84
2018-01-24T15:57:23.369Z,100231.03
2018-01-24T15:59:51.825Z,100231.22
2018-01-24T16:02:20.549Z,100233.75
2018-01-24T16:04:49.117Z,100215.17
2018-01-24T16:07:17.628Z,100221.61
2018-01-24T16:09:46.254Z,100205.42
2018-01-24T16:12:14.794Z,100220.22
2018-01-24T16:14:43.661Z,100207.67
2018-01-24T16:17:12.244Z,100203.88
2018-01-24T16:19:41.805Z,100216.20
2018-01-24T16:22:10.393Z,100208.66
2018-01-24T16:24:39.266Z,100205.60
2018-01-24T16:27:07.798Z,100195.88
2018-01-24T16:29:37.340Z,100192.42
2018-01-24T16:32:05.829Z,100172.30
2018-01-24T16:34:34.287Z,100187.24
2018-01-24T16:37:02.705Z,100177.58
2018-01-24T16:39:31.308Z,100173.45
2018-01-24T16:41:59.741Z,100171.55
2018-01-24T16:44:28.220Z,100170.98
2018-01-24T16:46:56.949Z,100157.97
2018-01-24T16:49:25.357Z,100172.00
2018-01-24T16:51:53.772Z,100171.75
2018-01-24T16:54:22.358Z,100150.55
2018-01-24T16:56:50.786Z,100154.34
2018-01-24T16:59:19.210Z,100143.48
2018-01-24T17:01:47.859Z,100134.66
2018-01-24T17:04:16.361Z,100136.92
2018-01-24T17:06:44.925Z,100129.58
2018-01-24T17:09:13.848Z,100116.88
2018-01-24T17:11:42.435Z,100117.89
2018-01-24T17:14:10.999Z,100117.11
2018-01-24T17:16:39.499Z,100121.84
2018-01-24T17:19:07.962Z,100121.41
2018-01-24T17:21:36.381Z,100126.56
2018-01-24T17:24:05.037Z,100120.92
2018-01-24T17:26:33.474Z,100121.89
2018-01-24T17:29:01.894Z,100113.92
2018-01-24T17:31:30.358Z,100117.27
2018-01-24T17:33:58.815Z,100116.34
2018-01-24T17:36:27.234Z,100131.80
2018-01-24T17:38:55.739Z,100121.21
2018-01-24T17:41:24.143Z,100106.45
2018-01-24T17:43:52.629Z,100105.80
2018-01-24T17:46:21.081Z,100117.95
2018-01-24T17:48:49.632Z,100101.80
2018-01-24T17:51:18.127Z,100105.12
2018-01-24T17:53:46.652Z,100104.70
2018-01-24T17:56:15.110Z,100098.60
2018-01-24T17:58:43.609Z,100110.34
2018-01-24T18:01:12.127Z,100098.48
2018-01-24T18:03:40.715Z,100098.06
2018-01-24T18:06:12.123Z,100087.95
2018-01-24T18:08:40.647Z,100084.27
2018-01-24T18:11:09.080Z,100096.41
2018-01-24T18:13:37.505Z,100091.97
2018-01-24T18:16:06.011Z,100102.28
2018-01-24T18:18:34.456Z,100099.73
2018-01-24T18:21:02.882Z,100091.06
2018-01-24T18:23:31.565Z,100088.23
2018-01-24T18:26:00.025Z,100090.49
2018-01-24T18:28:28.474Z,100072.41
2018-01-24T18:30:57.073Z,100077.43
2018-01-24T18:33:25.560Z,100095.29
2018-01-24T18:35:54.191Z,100075.19
2018-01-24T18:38:22.779Z,100081.16
2018-01-24T18:40:51.245Z,100084.41
2018-01-24T18:43:19.894Z,100081.05
2018-01-24T18:45:49.157Z,100087.19
2018-01-24T18:48:17.778Z,100084.77
2018-01-24T18:50:46.506Z,100099.24
2018-01-24T18:53:14.990Z,100090.50
2018-01-24T18:55:43.524Z,100087.25
2018-01-24T18:58:12.168Z,100089.02
2018-01-24T19:00:40.937Z,100085.06
2018-01-24T19:03:09.595Z,100088.83
2018-01-24T19:05:38.011Z,100094.89
2018-01-24T19:08:06.470Z,100090.66
2018-01-24T19:10:34.901Z,100083.23
2018-01-24T19:13:03.590Z,100073.72
2018-01-24T19:15:32.225Z,100085.05
2018-01-24T19:18:00.663Z,100086.96
2018-01-24T19:20:29.102Z,100093.21
2018-01-24T19:22:57.697Z,100078.68
2018-01-24T19:25:26.125Z,100086.79
2018-01-24T19:27:54.625Z,100079.06
2018-01-24T19:30:23.563Z,100061.64
2018-01-24T19:32:52.173Z,100079.73
2018-01-24T19:35:20.580Z,100059.14
2018-01-24T19:37:49.395Z,100061.33
2018-01-24T19:40:17.882Z,100053.77
2018-01-24T19:42:46.502Z,100046.95
2018-01-24T19:45:15.196Z,100057.70
2018-01-24T19:47:44.726Z,100039.08
2018-01-24T19:50:13.238Z,100035.11
2018-01-24T19:52:41.788Z,100049.29
2018-01-24T19:55:10.882Z,100041.41
2018-01-24T19:57:39.307Z,100039.42
2018-01-24T20:00:07.864Z,100049.38
2018-01-24T20:02:36.297Z,100062.29
2018-01-24T20:05:04.698Z,100133.17
2018-01-24T20:07:33.342Z,100128.37
2018-01-24T20:10:01.818Z,100132.23
2018-01-24T20:12:30.245Z,100139.39
2018-01-24T20:14:58.730Z,100155.95
2018-01-24T20:17:27.177Z,100161.63
2018-01-24T20:19:55.608Z,100168.63
2018-01-24T20:22:24.467Z,100173.88
2018-01-24T20:24:52.885Z,100170.67
2018-01-24T20:27:21.329Z,100173.46
2018-01-24T20:29:49.864Z,100177.95
2018-01-24T20:32:18.397Z,100184.85
2018-01-24T20:34:47.217Z,100183.39
2018-01-24T20:37:15.768Z,100174.78
2018-01-24T20:39:44.272Z,100169.47
2018-01-24T20:42:12.899Z,100181.00
2018-01-24T20:44:41.427Z,100181.13
2018-01-24T20:47:09.988Z,100189.97
2018-01-24T20:49:38.473Z,100194.42
2018-01-24T20:52:07.185Z,100199.17
2018-01-24T20:54:35.635Z,100211.09
2018-01-24T20:57:04.067Z,100208.91
2018-01-24T20:59:32.578Z,100215.44
2018-01-24T21:02:00.985Z,100211.08
2018-01-24T21:04:30.377Z,100216.83
2018-01-24T21:06:58.851Z,100214.17
2018-01-24T21:09:27.270Z,100218.64
2018-01-24T21:11:55.684Z,100221.78
2018-01-24T21:14:24.191Z,100219.91
2018-01-24T21:16:52.619Z,100225.94
2018-01-24T21:19:21.109Z,100232.38
2018-01-24T21:21:49.589Z,100234.30
2018-01-24T21:24:18.474Z,100222.80
2018-01-24T21:26:46.971Z,100230.19
2018-01-24T21:29:28.462Z,100234.23
2018-01-24T21:35:25.998Z,100236.28
2018-01-24T21:37:54.834Z,100239.84
2018-01-24T21:40:23.408Z,100247.05
2018-01-24T21:42:52.097Z,100250.41
2018-01-24T21:45:20.522Z,100238.29
2018-01-24T21:47:49.091Z,100251.74
2018-01-24T21:50:17.673Z,100247.70
2018-01-24T21:52:46.265Z,100240.52
2018-01-24T21:55:15.093Z,100251.38
2018-01-24T21:57:44.020Z,100247.66
2018-01-24T22:00:12.944Z,100239.89
2018-01-24T22:02:41.614Z,100235.38
2018-01-24T22:05:10.100Z,100233.94
2018-01-24T22:07:38.534Z,100235.20
2018-01-24T22:10:07.585Z,100240.79
2018-01-24T22:12:36.028Z,100237.65
2018-01-24T22:15:04.421Z,100244.72
2018-01-24T22:17:32.814Z,100251.80
2018-01-24T22:22:35.466Z,100252.44
2018-01-24T22:25:04.643Z,100264.72
2018-01-24T22:27:33.502Z,100266.05
2018-01-24T22:30:02.093Z,100274.67
2018-01-24T22:32:30.591Z,100258.37
2018-01-24T22:34:59.555Z,100259.89
2018-01-24T22:37:28.002Z,100272.86
2018-01-24T22:39:56.827Z,100282.59
2018-01-24T22:42:25.319Z,100275.47
2018-01-24T22:44:54.106Z,100273.08
2018-01-24T22:47:22.706Z,100276.48
2018-01-24T22:49:51.159Z,100277.92
2018-01-24T22:52:19.664Z,100280.20
2018-01-24T22:54:48.112Z,100281.24
2018-01-24T22:57:16.542Z,100290.66
2018-01-24T22:59:45.016Z,100291.27
2018-01-24T23:02:13.783Z,100288.56
2018-01-24T23:04:42.475Z,100286.27
2018-01-24T23:07:11.028Z,100293.98
2018-01-24T23:09:39.534Z,100299.41
2018-01-24T23:12:07.954Z,100302.13
2018-01-24T23:14:36.378Z,100298.93
2018-01-24T23:17:04.865Z,100303.90
2018-01-24T23:19:33.403Z,100300.07
2018-01-24T23:22:01.838Z,100300.44
2018-01-24T23:24:30.331Z,100301.19
2018-01-24T23:26:58.813Z,100301.41
2018-01-24T23:29:27.248Z,100313.53
2018-01-24T23:31:55.878Z,100314.54
2018-01-24T23:34:24.338Z,100328.33
2018-01-24T23:36:52.791Z,100327.27
2018-01-24T23:39:22.346Z,100328.17
2018-01-24T23:41:50.903Z,100331.25
2018-01-24T23:44:19.405Z,100341.89
2018-01-24T23:46:48.173Z,100343.75
2018-01-24T23:49:16.635Z,100340.88
2018-01-24T23:51:45.096Z,100353.09
2018-01-24T23:54:13.678Z,100352.61
2018-01-24T23:56:43.016Z,100356.23
2018-01-24T23:59:12.295Z,100351.08
